Time;durP1;ratioP1;P1;durP2;ratioP2;P2;SDS_P1;SDS_P2;PMS_P1;PMS_P2;Temp;Humidity;BMP_temperature;BMP_pressure;BME280_temperature;BME280_humidity;BME280_pressure;Samples;Min_cycle;Max_cycle;Signal;HPM_P1;HPM_P2
2020/12/21 00:00:03;;;;;;;86.47;38.37;;;;;;;1.59;71.59;100077.92;250967;1134;115400;-64
2020/12/21 00:05:34;;;;;;;78.15;37.70;;;;;;;1.61;71.59;100086.66;250839;1133;115459;-64
2020/12/21 00:10:37;;;;;;;85.97;39.23;;;;;;;1.63;71.75;100078.75;249705;1134;115899;-65
2020/12/21 00:15:43;;;;;;;84.47;36.30;;;;;;;1.61;71.23;100094.53;249320;1133;116426;-65
2020/12/21 00:20:45;;;;;;;83.80;41.33;;;;;;;1.49;70.92;100089.38;250078;1134;115514;-63
2020/12/21 00:25:47;;;;;;;78.83;38.33;;;;;;;1.47;71.42;100095.53;252168;1142;115526;-64
2020/12/21 00:30:49;;;;;;;73.10;36.25;;;;;;;1.39;70.97;100093.84;252219;1142;115336;-64
2020/12/21 00:36:07;;;;;;;70.67;36.03;;;;;;;1.29;70.98;100088.66;251903;1134;115420;-65
2020/12/21 00:41:13;;;;;;;77.80;36.88;;;;;;;1.23;70.44;100096.59;251965;1133;115248;-64
2020/12/21 00:46:25;;;;;;;72.73;35.03;;;;;;;1.22;71.22;100102.70;251942;1136;115462;-64
2020/12/21 00:51:28;;;;;;;74.33;34.30;;;;;;;1.19;70.65;100108.86;251829;1134;115619;-65
2020/12/21 00:56:31;;;;;;;72.67;34.35;;;;;;;1.19;70.97;100095.75;251995;1133;116426;-67
2020/12/21 01:01:33;;;;;;;73.97;34.20;;;;;;;1.23;71.03;100104.46;251111;1134;115408;-65
2020/12/21 01:06:36;;;;;;;68.47;34.63;;;;;;;1.18;71.39;100096.60;251904;1134;116110;-65
2020/12/21 01:11:39;;;;;;;72.20;35.30;;;;;;;1.22;71.31;100097.45;252140;1134;116280;-66
2020/12/21 01:16:41;;;;;;;69.12;33.75;;;;;;;1.22;71.21;100098.31;252048;1135;114948;-66
2020/12/21 01:21:44;;;;;;;72.03;35.20;;;;;;;1.17;70.64;100095.74;251857;1135;115665;-64
2020/12/21 01:26:46;;;;;;;76.87;35.10;;;;;;;1.17;70.46;100105.36;252036;1135;114825;-65
2020/12/21 01:31:49;;;;;;;75.00;34.55;;;;;;;1.20;70.82;100107.97;252018;1135;115985;-63
2020/12/21 01:36:51;;;;;;;72.90;33.93;;;;;;;1.20;71.08;100113.21;251907;1135;115464;-64
2020/12/21 01:41:54;;;;;;;70.07;33.50;;;;;;;1.17;70.75;100106.23;252093;1133;115521;-64
2020/12/21 01:46:56;;;;;;;73.95;34.67;;;;;;;1.16;71.57;100109.73;251217;1135;115502;-65
2020/12/21 01:51:59;;;;;;;71.07;32.50;;;;;;;1.15;71.13;100104.48;249818;1134;115519;-63
2020/12/21 01:57:02;;;;;;;65.45;31.70;;;;;;;1.15;70.86;100105.35;252074;1134;116313;-66
2020/12/21 02:02:04;;;;;;;84.47;33.77;;;;;;;1.16;71.42;100099.25;251854;1135;115368;-65
2020/12/21 02:07:07;;;;;;;72.43;32.63;;;;;;;1.13;71.46;100101.89;251949;1133;115393;-64
2020/12/21 02:12:10;;;;;;;72.20;31.87;;;;;;;1.18;71.80;100097.47;251965;1135;115706;-63
2020/12/21 02:17:12;;;;;;;75.30;33.97;;;;;;;1.24;71.27;100100.95;251639;1135;117839;-64
2020/12/21 02:22:14;;;;;;;76.57;33.87;;;;;;;1.24;71.37;100096.56;251791;1133;115393;-63
2020/12/21 02:27:17;;;;;;;73.10;33.13;;;;;;;1.27;71.28;100095.69;251909;1135;115624;-63
2020/12/21 02:32:19;;;;;;;73.40;33.13;;;;;;;1.28;70.98;100107.91;251876;1134;115168;-61
2020/12/21 02:37:27;;;;;;;70.50;30.77;;;;;;;1.25;71.13;100106.16;250657;1135;115563;-62
2020/12/21 02:42:29;;;;;;;74.10;32.70;;;;;;;1.24;71.46;100096.56;251593;1133;115373;-62
2020/12/21 02:47:32;;;;;;;69.17;31.47;;;;;;;1.24;70.86;100098.33;251935;1141;115801;-64
2020/12/21 02:52:34;;;;;;;67.43;30.80;;;;;;;1.21;70.74;100095.72;251642;1141;115193;-64
2020/12/21 02:57:36;;;;;;;67.73;32.60;;;;;;;1.22;70.70;100095.70;252058;1136;115566;-64
2020/12/21 03:02:39;;;;;;;70.08;32.70;;;;;;;1.26;71.13;100093.92;251897;1135;115346;-64
2020/12/21 03:07:42;;;;;;;63.00;31.10;;;;;;;1.26;70.83;100093.92;251846;1133;116649;-64
2020/12/21 03:12:44;;;;;;;64.97;30.77;;;;;;;1.26;71.63;100099.16;251903;1135;115211;-64
2020/12/21 03:17:46;;;;;;;71.03;31.37;;;;;;;1.26;71.30;100104.41;250421;1143;116350;-63
2020/12/21 03:22:49;;;;;;;68.83;29.13;;;;;;;1.21;71.40;100107.08;251643;1137;115297;-63
2020/12/21 03:27:51;;;;;;;65.75;30.77;;;;;;;1.18;71.24;100113.20;251879;1137;114767;-65
2020/12/21 03:32:53;;;;;;;56.93;27.30;;;;;;;1.14;71.34;100111.48;251804;1135;115175;-66
2020/12/21 03:38:01;;;;;;;61.77;27.10;;;;;;;1.04;70.42;100108.94;252043;1134;115309;-66
2020/12/21 03:43:03;;;;;;;69.47;32.07;;;;;;;0.97;70.55;100102.86;252141;1137;115801;-67
2020/12/21 03:48:06;;;;;;;68.10;31.23;;;;;;;1.00;70.84;100108.09;252021;1134;116256;-66
2020/12/21 03:53:08;;;;;;;72.65;32.00;;;;;;;1.05;71.32;100113.29;251821;1134;115323;-66
2020/12/21 03:58:11;;;;;;;70.17;31.27;;;;;;;1.06;71.39;100101.95;250612;1132;115580;-65
2020/12/21 04:03:13;;;;;;;74.85;33.02;;;;;;;1.06;71.07;100105.44;252114;1133;115802;-66
2020/12/21 04:08:23;;;;;;;75.93;33.30;;;;;;;1.08;71.76;100101.03;251577;1136;115706;-67
2020/12/21 04:13:26;;;;;;;71.00;31.20;;;;;;;1.15;71.40;100107.11;251895;1134;115007;-64
2020/12/21 04:18:40;;;;;;;;;;;;;;;1.12;71.57;100097.54;251739;1137;114988;-67
2020/12/21 04:23:42;;;;;;;62.30;29.27;;;;;;;1.13;71.38;100090.54;251314;1134;102982;-66
2020/12/21 04:28:44;;;;;;;67.47;32.70;;;;;;;1.15;71.13;100087.00;251709;1134;115373;-66
2020/12/21 04:33:47;;;;;;;78.10;33.67;;;;;;;1.18;71.41;100093.98;251965;1136;114956;-66
2020/12/21 04:38:53;;;;;;;67.03;30.47;;;;;;;1.20;71.58;100093.99;251789;1135;114902;-66
2020/12/21 04:43:56;;;;;;;68.57;32.55;;;;;;;1.15;71.59;100097.48;251894;1135;115169;-66
2020/12/21 04:49:01;;;;;;;73.77;33.40;;;;;;;1.16;71.21;100109.73;251843;1135;115209;-67
2020/12/21 04:54:04;;;;;;;;;;;;;;;1.09;70.87;100112.42;251774;1137;115707;-68
2020/12/21 04:59:08;;;;;;;97.17;37.63;;;;;;;1.03;71.21;100115.94;251986;1135;103161;-67
2020/12/21 05:04:14;;;;;;;88.27;37.28;;;;;;;1.03;71.02;100104.59;251968;1135;117459;-65
2020/12/21 05:09:21;;;;;;;88.60;36.63;;;;;;;1.00;70.58;100097.60;252105;1134;115239;-65
2020/12/21 05:14:31;;;;;;;90.43;36.80;;;;;;;0.98;71.13;100099.34;251767;1134;115354;-65
2020/12/21 05:19:33;;;;;;;91.90;38.90;;;;;;;0.98;71.02;100099.34;251878;1134;115306;-66
2020/12/21 05:24:36;;;;;;;87.17;36.90;;;;;;;1.01;70.91;100106.33;251945;1135;115731;-66
2020/12/21 05:29:38;;;;;;;82.10;36.13;;;;;;;1.06;71.06;100113.30;251948;1133;115140;-65
2020/12/21 05:34:40;;;;;;;92.72;41.88;;;;;;;1.08;71.14;100116.77;251968;1134;116077;-64
2020/12/21 05:39:54;;;;;;;87.80;39.10;;;;;;;1.12;70.86;100117.61;251881;1134;115431;-65
2020/12/21 05:45:01;;;;;;;104.47;43.33;;;;;;;1.20;70.89;100122.83;251933;1135;115222;-64
2020/12/21 05:50:06;;;;;;;116.43;42.90;;;;;;;1.23;70.79;100125.44;251815;1133;116110;-65
2020/12/21 05:55:11;;;;;;;107.75;44.75;;;;;;;1.23;71.16;100126.30;251778;1134;116161;-63
2020/12/21 06:00:15;;;;;;;121.00;46.20;;;;;;;1.25;71.15;100121.90;251895;1135;115344;-66
2020/12/21 06:05:21;;;;;;;111.53;46.60;;;;;;;1.28;70.89;100114.02;251823;1135;114991;-63
2020/12/21 06:10:27;;;;;;;122.77;46.03;;;;;;;1.30;70.87;100119.27;251884;1145;115447;-65
2020/12/21 06:15:30;;;;;;;124.93;48.43;;;;;;;1.32;71.37;100114.86;251889;1135;115621;-67
2020/12/21 06:20:41;;;;;;;134.90;51.67;;;;;;;1.34;70.94;100121.84;251626;1135;115582;-66
2020/12/21 06:25:44;;;;;;;122.60;47.80;;;;;;;1.38;71.19;100125.31;251770;1134;115735;-65
2020/12/21 06:30:46;;;;;;;127.77;48.83;;;;;;;1.45;71.07;100134.88;251804;1134;115611;-64
2020/12/21 06:35:48;;;;;;;118.23;50.30;;;;;;;1.48;71.30;100131.36;251905;1134;115354;-64
2020/12/21 06:40:50;;;;;;;123.40;48.03;;;;;;;1.48;70.65;100134.85;251927;1136;115361;-63
2020/12/21 06:45:52;;;;;;;126.27;48.33;;;;;;;1.50;70.91;100137.48;251996;1135;115737;-65
2020/12/21 06:51:13;;;;;;;133.32;48.80;;;;;;;1.51;71.19;100140.08;251785;1134;115560;-65
2020/12/21 06:56:17;;;;;;;125.80;47.43;;;;;;;1.51;71.20;100153.20;251095;1135;115344;-65
2020/12/21 07:01:22;;;;;;;124.40;46.70;;;;;;;1.51;70.77;100150.57;251939;1142;115156;-65
2020/12/21 07:06:24;;;;;;;;;;;;;;;1.54;70.87;100150.55;251893;1134;115374;-65
2020/12/21 07:11:27;;;;;;;119.55;47.17;;;;;;;1.51;70.84;100147.95;252006;1133;103052;-64
2020/12/21 07:16:29;;;;;;;124.90;49.55;;;;;;;1.56;71.08;100150.52;251954;1141;115127;-64
2020/12/21 07:21:31;;;;;;;143.37;51.40;;;;;;;1.57;71.15;100142.66;251914;1134;114835;-65
2020/12/21 07:26:34;;;;;;;147.57;52.00;;;;;;;1.63;71.00;100147.87;252015;1134;115476;-65
2020/12/21 07:31:36;;;;;;;135.60;51.70;;;;;;;1.64;70.89;100160.09;251824;1135;114932;-66
2020/12/21 07:36:40;;;;;;;148.63;51.23;;;;;;;1.63;70.90;100150.48;251633;1134;115510;-66
2020/12/21 07:41:48;;;;;;;129.90;50.23;;;;;;;1.61;70.70;100160.11;251890;1134;115270;-66
2020/12/21 07:47:03;;;;;;;135.87;47.00;;;;;;;1.63;70.86;100163.61;251940;1135;115615;-66
2020/12/21 07:52:07;;;;;;;131.60;48.58;;;;;;;1.74;70.99;100160.03;251970;1133;115796;-65
2020/12/21 07:57:10;;;;;;;146.93;52.77;;;;;;;1.78;70.74;100149.48;251900;1134;115492;-65
2020/12/21 08:02:23;;;;;;;163.47;53.75;;;;;;;1.81;70.84;100166.97;251906;1134;115353;-68
2020/12/21 08:07:29;;;;;;;162.12;53.02;;;;;;;1.84;70.66;100162.56;251947;1134;115174;-69
2020/12/21 08:12:32;;;;;;;152.67;53.03;;;;;;;1.77;70.56;100160.88;251789;1135;115706;-68
2020/12/21 08:17:34;;;;;;;146.63;51.13;;;;;;;1.78;70.69;100156.48;252076;1134;115584;-68
2020/12/21 08:22:37;;;;;;;144.67;49.20;;;;;;;1.78;70.83;100156.48;251801;1135;115475;-68
2020/12/21 08:27:43;;;;;;;130.45;49.58;;;;;;;1.76;70.23;100163.49;251528;1134;115625;-65
2020/12/21 08:32:52;;;;;;;128.87;49.88;;;;;;;1.76;70.30;100166.11;251827;1135;115466;-66
2020/12/21 08:38:14;;;;;;;129.17;48.63;;;;;;;1.74;70.78;100167.91;251906;1134;115907;-66
2020/12/21 08:43:17;;;;;;;111.88;47.95;;;;;;;1.78;70.72;100162.61;251920;1134;115803;-66
2020/12/21 08:48:20;;;;;;;123.17;49.87;;;;;;;1.82;70.69;100156.44;251883;1134;115610;-66
2020/12/21 08:53:22;;;;;;;116.47;46.37;;;;;;;1.88;70.93;100153.77;251357;1134;115481;-66
2020/12/21 08:58:24;;;;;;;104.38;43.80;;;;;;;1.95;70.78;100149.34;251171;1134;115885;-66
2020/12/21 09:03:27;;;;;;;103.10;44.17;;;;;;;2.04;70.84;100144.02;251881;1134;115192;-66
2020/12/21 09:08:29;;;;;;;109.83;44.90;;;;;;;2.10;70.76;100141.30;252112;1134;115544;-65
2020/12/21 09:13:32;;;;;;;107.10;44.97;;;;;;;2.12;70.71;100136.91;251993;1135;116197;-66
2020/12/21 09:18:34;;;;;;;110.13;46.70;;;;;;;2.12;70.77;100144.80;252027;1142;115507;-66
2020/12/21 09:23:37;;;;;;;99.07;43.10;;;;;;;2.18;70.85;100143.01;251813;1135;115228;-66
2020/12/21 09:28:41;;;;;;;107.83;46.03;;;;;;;2.22;70.71;100137.70;251970;1134;115701;-67
2020/12/21 09:33:44;;;;;;;105.83;45.27;;;;;;;2.21;70.98;100138.59;251875;1133;115253;-66
2020/12/21 09:38:50;;;;;;;113.10;46.13;;;;;;;2.23;70.71;100134.17;251942;1135;115435;-66
2020/12/21 09:43:53;;;;;;;113.10;45.63;;;;;;;2.24;70.79;100125.44;251856;1134;116202;-67
2020/12/21 09:48:55;;;;;;;98.60;43.35;;;;;;;2.34;70.87;100110.41;251772;1134;115416;-68
2020/12/21 09:53:58;;;;;;;99.80;42.87;;;;;;;2.40;70.14;100106.86;251777;1134;114933;-68
2020/12/21 09:59:04;;;;;;;109.33;45.43;;;;;;;2.44;70.55;100114.67;251956;1134;114879;-70
2020/12/21 10:04:10;;;;;;;105.13;46.37;;;;;;;2.45;70.84;100118.20;251848;1138;115581;-67
2020/12/21 10:09:14;;;;;;;98.00;44.40;;;;;;;2.48;70.74;100108.52;251929;1135;115446;-67
2020/12/21 10:14:19;;;;;;;95.07;44.83;;;;;;;2.50;70.68;100101.47;251763;1134;114809;-68
2020/12/21 10:19:22;;;;;;;93.80;43.30;;;;;;;2.53;71.08;100096.19;251761;1135;115028;-67
2020/12/21 10:24:24;;;;;;;85.87;40.17;;;;;;;2.59;70.52;100097.87;252016;1135;115260;-68
2020/12/21 10:29:27;;;;;;;80.30;39.37;;;;;;;2.63;70.76;100096.08;251721;1135;115031;-66
2020/12/21 10:34:30;;;;;;;74.90;37.97;;;;;;;2.69;70.54;100077.61;251922;1139;115479;-66
2020/12/21 10:39:32;;;;;;;80.83;39.60;;;;;;;2.80;70.73;100080.95;250701;1133;115595;-66
2020/12/21 10:44:34;;;;;;;74.97;39.93;;;;;;;2.95;70.88;100083.35;251818;1135;115185;-66
2020/12/21 10:49:40;;;;;;;73.67;38.50;;;;;;;3.07;71.27;100080.56;251623;1134;115153;-66
2020/12/21 10:54:43;;;;;;;70.50;39.27;;;;;;;3.16;71.04;100070.78;251463;1134;115984;-67
2020/12/21 10:59:45;;;;;;;71.27;39.93;;;;;;;3.16;70.62;100063.78;251532;1134;115199;-65
2020/12/21 11:04:48;;;;;;;77.45;40.65;;;;;;;3.21;71.13;100068.96;251672;1134;115405;-66
2020/12/21 11:09:50;;;;;;;72.97;40.97;;;;;;;3.23;70.80;100060.16;251799;1135;115869;-66
2020/12/21 11:14:52;;;;;;;82.53;41.47;;;;;;;3.25;70.92;100057.49;251676;1135;115199;-67
2020/12/21 11:19:55;;;;;;;79.40;39.50;;;;;;;3.27;70.55;100051.33;251154;1134;115278;-67
2020/12/21 11:24:57;;;;;;;80.63;43.70;;;;;;;3.31;70.58;100047.75;251805;1134;115216;-67
2020/12/21 11:29:59;;;;;;;79.37;42.70;;;;;;;3.32;71.15;100033.69;251918;1135;116496;-67
2020/12/21 11:35:01;;;;;;;69.10;40.87;;;;;;;3.37;70.68;100043.30;251050;1135;115124;-67
2020/12/21 11:40:05;;;;;;;78.30;42.70;;;;;;;3.37;70.99;100038.03;251915;1142;115810;-68
2020/12/21 11:45:07;;;;;;;77.93;44.13;;;;;;;3.35;70.99;100038.03;251679;1135;115126;-68
2020/12/21 11:50:10;;;;;;;78.00;45.47;;;;;;;3.38;70.94;100029.23;251876;1134;115000;-68
2020/12/21 11:55:13;;;;;;;77.37;43.00;;;;;;;3.37;70.51;100025.74;252090;1134;115701;-67
2020/12/21 12:00:15;;;;;;;80.87;44.77;;;;;;;3.38;70.87;100030.09;251909;1141;116215;-66
2020/12/21 12:05:18;;;;;;;88.00;46.77;;;;;;;3.38;70.40;100030.09;251885;1134;115340;-67
2020/12/21 12:10:20;;;;;;;82.67;42.83;;;;;;;3.44;71.21;100031.77;251879;1134;115345;-67
2020/12/21 12:15:22;;;;;;;82.67;41.97;;;;;;;3.54;70.98;100036.84;251724;1136;115391;-67
2020/12/21 12:20:24;;;;;;;84.37;45.10;;;;;;;3.55;70.73;100033.30;251864;1135;115483;-67
2020/12/21 12:25:27;;;;;;;85.07;47.40;;;;;;;3.59;70.75;100033.25;250562;1134;115198;-66
2020/12/21 12:30:29;;;;;;;75.50;42.17;;;;;;;3.59;70.83;100038.52;251788;1135;115366;-67
2020/12/21 12:35:31;;;;;;;82.53;44.37;;;;;;;3.57;70.19;100033.30;251960;1135;115139;-66
2020/12/21 12:40:34;;;;;;;93.07;48.33;;;;;;;3.55;70.60;100033.30;251663;1134;115290;-67
2020/12/21 12:45:36;;;;;;;88.22;49.05;;;;;;;3.55;70.99;100033.30;251678;1136;115428;-67
2020/12/21 12:50:38;;;;;;;84.77;47.80;;;;;;;3.58;70.71;100034.16;251963;1134;115402;-66
2020/12/21 12:55:41;;;;;;;86.00;45.63;;;;;;;3.54;70.45;100043.87;251892;1134;115130;-67
2020/12/21 13:00:43;;;;;;;76.10;41.23;;;;;;;3.52;70.88;100040.38;252073;1139;115279;-66
2020/12/21 13:05:46;;;;;;;77.60;40.33;;;;;;;3.55;70.67;100045.60;251741;1135;115525;-66
2020/12/21 13:10:48;;;;;;;77.40;44.08;;;;;;;3.58;71.13;100042.05;251643;1133;115720;-66
2020/12/21 13:15:53;;;;;;;74.13;44.97;;;;;;;3.58;70.57;100042.92;251767;1135;115016;-67
2020/12/21 13:20:55;;;;;;;89.07;48.97;;;;;;;3.59;71.15;100044.64;251793;1135;115313;-66
2020/12/21 13:25:58;;;;;;;83.40;49.67;;;;;;;3.58;70.77;100047.31;251786;1134;115577;-67
2020/12/21 13:31:00;;;;;;;89.83;49.20;;;;;;;3.53;70.79;100039.48;251801;1135;115143;-67
2020/12/21 13:36:02;;;;;;;81.78;47.10;;;;;;;3.50;71.36;100047.45;251967;1135;115285;-67
2020/12/21 13:41:09;;;;;;;81.23;47.77;;;;;;;3.46;71.29;100045.75;252083;1134;115374;-67
2020/12/21 13:46:12;;;;;;;83.87;45.10;;;;;;;3.44;70.93;100042.30;251867;1134;115722;-68
2020/12/21 13:51:14;;;;;;;85.67;45.73;;;;;;;3.46;70.92;100043.11;251653;1134;117763;-66
2020/12/21 13:56:16;;;;;;;92.00;49.23;;;;;;;3.49;71.09;100038.66;251703;1135;115619;-66
2020/12/21 14:01:19;;;;;;;87.42;49.98;;;;;;;3.53;71.20;100040.37;251641;1133;115128;-66
2020/12/21 14:06:21;;;;;;;82.93;48.87;;;;;;;3.51;70.71;100042.16;251811;1134;115579;-65
2020/12/21 14:11:23;;;;;;;83.10;48.23;;;;;;;3.46;70.57;100041.34;251932;1135;115301;-66
2020/12/21 14:16:26;;;;;;;82.87;47.80;;;;;;;3.41;70.94;100035.31;251938;1135;115107;-66
2020/12/21 14:21:35;;;;;;;84.63;44.37;;;;;;;3.41;70.84;100039.71;251959;1134;115392;-66
2020/12/21 14:26:37;;;;;;;82.08;48.87;;;;;;;3.35;70.92;100038.03;252033;1136;115230;-66
2020/12/21 14:31:40;;;;;;;75.83;41.33;;;;;;;3.32;70.60;100041.58;252116;1135;115200;-66
2020/12/21 14:36:42;;;;;;;74.80;40.00;;;;;;;3.34;70.70;100031.05;251939;1135;115145;-66
2020/12/21 14:41:47;;;;;;;;;;;;;;;3.34;71.42;100028.42;251815;1134;115543;-66
2020/12/21 14:46:52;;;;;;;74.37;41.53;;;;;;;3.32;70.87;100025.80;251933;1135;102364;-67
2020/12/21 14:51:54;;;;;;;75.13;44.87;;;;;;;3.30;71.00;100019.71;251802;1134;115217;-67
2020/12/21 14:56:57;;;;;;;78.13;43.17;;;;;;;3.29;70.79;100020.61;251900;1135;115309;-67
2020/12/21 15:02:00;;;;;;;82.20;45.15;;;;;;;3.23;70.97;100025.97;251809;1135;115402;-67
2020/12/21 15:07:05;;;;;;;75.97;43.37;;;;;;;3.15;71.15;100025.20;251891;1135;117344;-67
2020/12/21 15:12:07;;;;;;;86.03;45.43;;;;;;;3.13;71.00;100018.26;251904;1133;115272;-67
2020/12/21 15:17:10;;;;;;;83.25;45.67;;;;;;;3.17;71.04;100009.42;251962;1135;115490;-67
2020/12/21 15:22:12;;;;;;;96.63;53.23;;;;;;;3.21;71.42;100011.09;251683;1135;116887;-67
2020/12/21 15:27:14;;;;;;;91.55;54.27;;;;;;;3.21;70.82;100017.22;251835;1135;115601;-67
2020/12/21 15:32:17;;;;;;;91.60;52.27;;;;;;;3.20;71.66;100019.89;251980;1135;116260;-67
2020/12/21 15:37:19;;;;;;;86.97;51.90;;;;;;;3.14;70.76;100005.06;251609;1135;114870;-66
2020/12/21 15:42:22;;;;;;;96.57;52.85;;;;;;;3.11;71.02;100015.63;251818;1134;116866;-66
2020/12/21 15:47:24;;;;;;;91.03;51.83;;;;;;;3.03;71.12;100017.53;250957;1134;115194;-66
2020/12/21 15:52:31;;;;;;;83.40;49.60;;;;;;;2.98;71.33;100007.06;250751;1135;115380;-66
2020/12/21 15:57:33;;;;;;;89.90;47.93;;;;;;;2.94;70.97;99996.62;251941;1135;115306;-66
2020/12/21 16:02:36;;;;;;;81.77;44.43;;;;;;;2.96;71.02;100003.61;250929;1134;115004;-65
2020/12/21 16:07:39;;;;;;;87.33;48.77;;;;;;;2.97;71.02;100000.08;249777;1135;115256;-66
2020/12/21 16:12:42;;;;;;;91.50;49.13;;;;;;;2.97;71.51;100001.84;251887;1136;116140;-63
2020/12/21 16:17:44;;;;;;;89.17;48.37;;;;;;;2.98;71.38;100007.06;249974;1134;115379;-63
2020/12/21 16:22:47;;;;;;;90.63;48.57;;;;;;;2.94;71.15;100004.52;252009;1135;115271;-65
2020/12/21 16:27:49;;;;;;;88.77;45.73;;;;;;;2.91;71.25;100002.80;251983;1134;115200;-64
2020/12/21 16:32:52;;;;;;;89.90;46.45;;;;;;;2.89;71.23;100004.59;251790;1134;115787;-64
2020/12/21 16:38:04;;;;;;;87.23;45.20;;;;;;;2.87;71.14;99995.86;251832;1135;115667;-66
2020/12/21 16:43:07;;;;;;;101.47;51.63;;;;;;;2.87;71.34;100000.25;251723;1134;115240;-63
2020/12/21 16:48:09;;;;;;;113.83;54.20;;;;;;;2.91;71.65;99991.41;251960;1134;115607;-65
2020/12/21 16:53:12;;;;;;;102.47;54.17;;;;;;;2.95;71.40;99987.84;251974;1134;115104;-64
2020/12/21 16:58:14;;;;;;;115.60;57.13;;;;;;;2.97;71.46;99986.06;251930;1134;116177;-66
2020/12/21 17:03:31;;;;;;;133.17;68.87;;;;;;;2.98;71.46;99983.40;252010;1135;115934;-64
2020/12/21 17:08:33;;;;;;;124.93;64.03;;;;;;;3.00;71.63;99980.77;251834;1132;115617;-63
2020/12/21 17:13:36;;;;;;;118.53;63.60;;;;;;;2.94;71.20;99973.83;251863;1134;115888;-66
2020/12/21 17:18:38;;;;;;;127.90;66.97;;;;;;;2.89;71.32;99977.41;251749;1134;115465;-65
2020/12/21 17:23:40;;;;;;;116.97;60.67;;;;;;;2.86;71.26;99980.13;251976;1135;115648;-67
2020/12/21 17:28:43;;;;;;;127.43;63.30;;;;;;;2.82;71.42;99989.81;251712;1134;115325;-65
2020/12/21 17:33:45;;;;;;;118.40;59.63;;;;;;;2.84;71.46;99988.88;251837;1135;115469;-66
2020/12/21 17:38:48;;;;;;;120.03;62.87;;;;;;;2.88;71.55;99994.95;251782;1134;115566;-65
2020/12/21 17:43:50;;;;;;;119.23;61.37;;;;;;;2.89;71.14;99998.44;251862;1135;115338;-64
2020/12/21 17:48:52;;;;;;;135.90;66.70;;;;;;;2.89;71.01;99999.34;251000;1135;115288;-65
2020/12/21 17:53:55;;;;;;;125.97;65.37;;;;;;;2.89;71.60;99994.08;250880;1135;115140;-65
2020/12/21 17:58:57;;;;;;;151.03;71.27;;;;;;;2.86;71.45;99988.00;251519;1134;115972;-65
2020/12/21 18:03:59;;;;;;;153.63;74.23;;;;;;;2.83;71.54;99983.66;252021;1134;115138;-65
2020/12/21 18:09:02;;;;;;;150.77;73.77;;;;;;;2.78;71.33;99978.45;251928;1134;115689;-65
2020/12/21 18:14:04;;;;;;;157.50;75.40;;;;;;;2.85;71.40;99979.22;250550;1135;115270;-67
2020/12/21 18:19:07;;;;;;;168.83;79.40;;;;;;;2.92;71.65;99978.27;250701;1134;114973;-63
2020/12/21 18:24:09;;;;;;;150.67;75.90;;;;;;;2.98;71.17;99972.02;250787;1134;115494;-62
2020/12/21 18:29:12;;;;;;;151.87;79.43;;;;;;;3.02;71.52;99968.44;251410;1134;115070;-64
2020/12/21 18:34:15;;;;;;;158.77;75.63;;;;;;;3.05;71.63;99964.00;249921;1135;115063;-65
2020/12/21 18:39:19;;;;;;;148.70;77.70;;;;;;;3.04;71.63;99958.78;252155;1133;115216;-63
2020/12/21 18:44:22;;;;;;;170.63;79.23;;;;;;;3.05;71.94;99956.11;250583;1134;115144;-65
2020/12/21 18:49:24;;;;;;;171.20;86.87;;;;;;;3.09;71.64;99954.30;249187;1134;114987;-64
2020/12/21 18:54:28;;;;;;;147.40;77.47;;;;;;;3.09;71.66;99951.66;251220;1134;115334;-65
2020/12/21 18:59:31;;;;;;;152.37;70.20;;;;;;;3.04;71.77;99951.75;249891;1133;115217;-65
2020/12/21 19:04:33;;;;;;;142.77;71.30;;;;;;;3.03;72.00;99939.51;248572;1134;115509;-62
2020/12/21 19:09:36;;;;;;;160.00;79.63;;;;;;;3.08;71.61;99956.06;251925;1134;115464;-62
2020/12/21 19:14:38;;;;;;;145.00;76.03;;;;;;;3.13;71.88;99944.62;251942;1133;115439;-68
2020/12/21 19:19:46;;;;;;;136.53;66.70;;;;;;;3.10;71.93;99939.41;250612;1134;115808;-64
2020/12/21 19:24:49;;;;;;;138.30;67.70;;;;;;;3.15;72.52;99934.92;250495;1134;115789;-65
2020/12/21 19:29:51;;;;;;;138.60;64.60;;;;;;;3.15;71.96;99934.92;251421;1137;115320;-64
2020/12/21 19:34:54;;;;;;;155.03;69.63;;;;;;;3.09;71.48;99922.73;251939;1134;115173;-66
2020/12/21 19:39:57;;;;;;;162.17;68.53;;;;;;;3.06;71.17;99920.19;251933;1135;115195;-65
2020/12/21 19:45:00;;;;;;;163.83;70.93;;;;;;;3.05;71.76;99921.06;250416;1135;115770;-64
2020/12/21 19:50:03;;;;;;;171.87;70.37;;;;;;;3.08;71.24;99919.25;250062;1135;115136;-66
2020/12/21 19:55:07;;;;;;;166.30;69.50;;;;;;;3.07;71.45;99922.78;250931;1135;115348;-65
2020/12/21 20:00:09;;;;;;;158.30;69.33;;;;;;;3.12;71.97;99924.45;250234;1134;115209;-63
2020/12/21 20:05:12;;;;;;;170.20;70.67;;;;;;;3.10;71.80;99921.00;250695;1133;114971;-64
2020/12/21 20:10:14;;;;;;;162.57;70.33;;;;;;;3.06;71.17;99917.56;250932;1135;116502;-64
2020/12/21 20:15:18;;;;;;;164.17;71.90;;;;;;;2.99;71.69;99906.28;251424;1136;115163;-62
2020/12/21 20:20:20;;;;;;;168.97;72.22;;;;;;;2.95;71.62;99920.34;251356;1135;115248;-63
2020/12/21 20:25:22;;;;;;;170.07;67.40;;;;;;;2.92;71.33;99903.76;250878;1135;115069;-64
2020/12/21 20:30:25;;;;;;;169.57;68.70;;;;;;;2.87;71.62;99901.22;250485;1134;115558;-64
2020/12/21 20:35:28;;;;;;;152.00;65.80;;;;;;;2.86;71.15;99899.50;251954;1135;114829;-63
2020/12/21 20:40:30;;;;;;;168.93;73.20;;;;;;;2.89;71.40;99883.67;251679;1135;115361;-65
2020/12/21 20:45:33;;;;;;;152.57;68.90;;;;;;;2.91;71.46;99881.00;251935;1135;114962;-62
2020/12/21 20:50:35;;;;;;;153.50;68.53;;;;;;;2.90;71.21;99880.14;250719;1135;116287;-65
2020/12/21 20:55:37;;;;;;;146.63;66.03;;;;;;;2.88;71.04;99889.80;250197;1134;115080;-65
2020/12/21 21:00:43;;;;;;;141.00;66.00;;;;;;;2.83;71.46;99891.66;250990;1135;115430;-64
2020/12/21 21:05:48;;;;;;;130.73;63.97;;;;;;;2.77;71.46;99900.50;251043;1135;115664;-64
2020/12/21 21:10:55;;;;;;;117.57;57.95;;;;;;;2.74;71.36;99899.69;251581;1134;115046;-63
2020/12/21 21:16:03;;;;;;;119.20;57.43;;;;;;;2.74;71.70;99894.43;251902;1134;115423;-64
2020/12/21 21:21:10;;;;;;;110.08;57.88;;;;;;;2.77;71.21;99884.73;251834;1135;115093;-63
2020/12/21 21:26:19;;;;;;;129.07;59.90;;;;;;;2.82;71.39;99879.42;252127;1135;115705;-65
2020/12/21 21:31:24;;;;;;;119.63;60.53;;;;;;;2.85;71.64;99879.34;250506;1135;115496;-68
2020/12/21 21:36:26;;;;;;;114.03;57.57;;;;;;;2.84;71.39;99869.73;250061;1135;115945;-64
2020/12/21 21:41:29;;;;;;;108.37;57.70;;;;;;;2.79;71.27;99864.56;250209;1134;115028;-63
2020/12/21 21:46:37;;;;;;;107.37;56.63;;;;;;;2.75;71.15;99859.36;250957;1134;115158;-66
2020/12/21 21:51:44;;;;;;;108.77;57.00;;;;;;;2.67;71.42;99848.13;251725;1134;114830;-66
2020/12/21 21:56:50;;;;;;;134.13;66.33;;;;;;;2.65;71.69;99856.05;250726;1135;115626;-67
2020/12/21 22:02:00;;;;;;;124.27;64.62;;;;;;;2.65;71.26;99849.89;251897;1135;115396;-65
2020/12/21 22:07:03;;;;;;;135.93;69.97;;;;;;;2.68;71.71;99849.84;250098;1135;117020;-66
2020/12/21 22:12:05;;;;;;;135.43;70.03;;;;;;;2.66;71.37;99849.89;250386;1134;115131;-64
2020/12/21 22:17:10;;;;;;;135.50;72.83;;;;;;;2.67;71.69;99840.24;251476;1135;115078;-63
2020/12/21 22:22:12;;;;;;;;;;;;;;;2.67;71.51;99824.47;251291;1134;115227;-64
2020/12/21 22:27:15;;;;;;;157.73;77.33;;;;;;;2.63;71.46;99802.64;250040;1134;105195;-64
2020/12/21 22:32:18;;;;;;;161.90;79.60;;;;;;;2.65;71.56;99807.86;250767;1135;206261;-63
2020/12/21 22:37:20;;;;;;;166.90;77.45;;;;;;;2.61;71.56;99809.67;250011;1135;115866;-63
2020/12/21 22:42:22;;;;;;;152.55;72.75;;;;;;;2.63;71.43;99799.16;250084;1134;115095;-65